sensor_id;sensor_type;location;lat;lon;timestamp;P1;durP1;ratioP1;P2;durP2;ratioP2
7047;SDS011;3565;53.254;10.352;2023-06-22T00:02:04;5.97;;;5.43;;
7047;SDS011;3565;53.254;10.352;2023-06-22T00:04:34;5.60;;;5.10;;
7047;SDS011;3565;53.254;10.352;2023-06-22T00:07:03;5.90;;;5.40;;
7047;SDS011;3565;53.254;10.352;2023-06-22T00:09:32;5.20;;;4.70;;
7047;SDS011;3565;53.254;10.352;2023-06-22T00:14:38;5.60;;;5.10;;
7047;SDS011;3565;53.254;10.352;2023-06-22T00:19:47;5.17;;;4.70;;
7047;SDS011;3565;53.254;10.352;2023-06-22T00:24:55;5.53;;;4.97;;
7047;SDS011;3565;53.254;10.352;2023-06-22T00:27:24;5.77;;;5.27;;
7047;SDS011;3565;53.254;10.352;2023-06-22T00:30:03;5.50;;;5.00;;
7047;SDS011;3565;53.254;10.352;2023-06-22T00:35:21;5.30;;;4.80;;
7047;SDS011;3565;53.254;10.352;2023-06-22T00:38:00;5.80;;;5.30;;
7047;SDS011;3565;53.254;10.352;2023-06-22T00:40:31;5.33;;;4.87;;
7047;SDS011;3565;53.254;10.352;2023-06-22T00:43:10;5.90;;;5.33;;
7047;SDS011;3565;53.254;10.352;2023-06-22T00:45:39;6.37;;;5.57;;
7047;SDS011;3565;53.254;10.352;2023-06-22T00:48:18;6.20;;;5.67;;
7047;SDS011;3565;53.254;10.352;2023-06-22T00:50:47;5.93;;;5.07;;
7047;SDS011;3565;53.254;10.352;2023-06-22T00:55:56;7.87;;;5.80;;
7047;SDS011;3565;53.254;10.352;2023-06-22T00:58:26;6.27;;;5.77;;
7047;SDS011;3565;53.254;10.352;2023-06-22T01:01:05;6.37;;;5.77;;
7047;SDS011;3565;53.254;10.352;2023-06-22T01:03:34;7.90;;;5.67;;
7047;SDS011;3565;53.254;10.352;2023-06-22T01:06:05;6.63;;;5.97;;
7047;SDS011;3565;53.254;10.352;2023-06-22T01:08:46;6.17;;;5.57;;
7047;SDS011;3565;53.254;10.352;2023-06-22T01:11:26;7.37;;;5.23;;
7047;SDS011;3565;53.254;10.352;2023-06-22T01:16:37;7.10;;;5.70;;
7047;SDS011;3565;53.254;10.352;2023-06-22T01:19:14;6.10;;;5.60;;
7047;SDS011;3565;53.254;10.352;2023-06-22T01:21:53;7.30;;;5.77;;
7047;SDS011;3565;53.254;10.352;2023-06-22T01:27:04;6.43;;;5.83;;
7047;SDS011;3565;53.254;10.352;2023-06-22T01:29:34;6.83;;;6.23;;
7047;SDS011;3565;53.254;10.352;2023-06-22T01:34:43;6.47;;;5.90;;
7047;SDS011;3565;53.254;10.352;2023-06-22T01:37:14;6.90;;;6.30;;
7047;SDS011;3565;53.254;10.352;2023-06-22T01:39:53;7.45;;;6.75;;
7047;SDS011;3565;53.254;10.352;2023-06-22T01:45:00;6.93;;;6.27;;
7047;SDS011;3565;53.254;10.352;2023-06-22T01:47:30;7.20;;;6.47;;
7047;SDS011;3565;53.254;10.352;2023-06-22T01:50:09;7.00;;;6.30;;
7047;SDS011;3565;53.254;10.352;2023-06-22T01:52:39;7.27;;;6.57;;
7047;SDS011;3565;53.254;10.352;2023-06-22T01:55:09;6.43;;;5.83;;
7047;SDS011;3565;53.254;10.352;2023-06-22T01:57:47;6.63;;;5.90;;
7047;SDS011;3565;53.254;10.352;2023-06-22T02:02:56;6.03;;;5.40;;
7047;SDS011;3565;53.254;10.352;2023-06-22T02:08:05;6.60;;;6.00;;
7047;SDS011;3565;53.254;10.352;2023-06-22T02:10:35;8.90;;;6.73;;
7047;SDS011;3565;53.254;10.352;2023-06-22T02:13:14;6.70;;;6.10;;
7047;SDS011;3565;53.254;10.352;2023-06-22T02:15:43;6.63;;;6.00;;
7047;SDS011;3565;53.254;10.352;2023-06-22T02:18:13;7.70;;;6.90;;
7047;SDS011;3565;53.254;10.352;2023-06-22T02:23:20;6.57;;;5.37;;
7047;SDS011;3565;53.254;10.352;2023-06-22T02:25:49;6.70;;;6.07;;
7047;SDS011;3565;53.254;10.352;2023-06-22T02:28:17;6.70;;;5.83;;
7047;SDS011;3565;53.254;10.352;2023-06-22T02:30:46;7.10;;;6.40;;
7047;SDS011;3565;53.254;10.352;2023-06-22T02:33:15;7.13;;;6.43;;
7047;SDS011;3565;53.254;10.352;2023-06-22T02:35:44;6.90;;;5.63;;
7047;SDS011;3565;53.254;10.352;2023-06-22T02:38:15;7.67;;;6.87;;
7047;SDS011;3565;53.254;10.352;2023-06-22T02:40:54;6.37;;;5.77;;
7047;SDS011;3565;53.254;10.352;2023-06-22T02:43:23;6.57;;;5.97;;
7047;SDS011;3565;53.254;10.352;2023-06-22T02:46:02;7.27;;;6.33;;
7047;SDS011;3565;53.254;10.352;2023-06-22T02:51:08;7.93;;;6.70;;
7047;SDS011;3565;53.254;10.352;2023-06-22T02:53:37;7.53;;;6.73;;
7047;SDS011;3565;53.254;10.352;2023-06-22T02:58:45;7.80;;;6.17;;
7047;SDS011;3565;53.254;10.352;2023-06-22T03:01:14;6.97;;;5.87;;
7047;SDS011;3565;53.254;10.352;2023-06-22T03:03:53;8.53;;;6.20;;
7047;SDS011;3565;53.254;10.352;2023-06-22T03:09:00;7.10;;;6.40;;
7047;SDS011;3565;53.254;10.352;2023-06-22T03:11:31;8.03;;;7.10;;
7047;SDS011;3565;53.254;10.352;2023-06-22T03:14:10;8.63;;;7.33;;
7047;SDS011;3565;53.254;10.352;2023-06-22T03:16:39;7.90;;;7.10;;
7047;SDS011;3565;53.254;10.352;2023-06-22T03:21:45;7.77;;;6.97;;
7047;SDS011;3565;53.254;10.352;2023-06-22T03:24:14;9.27;;;7.77;;
7047;SDS011;3565;53.254;10.352;2023-06-22T03:26:53;7.30;;;6.60;;
7047;SDS011;3565;53.254;10.352;2023-06-22T03:32:00;7.40;;;6.70;;
7047;SDS011;3565;53.254;10.352;2023-06-22T03:34:30;7.50;;;6.70;;
7047;SDS011;3565;53.254;10.352;2023-06-22T03:37:09;7.77;;;6.97;;
7047;SDS011;3565;53.254;10.352;2023-06-22T03:39:38;7.70;;;6.90;;
7047;SDS011;3565;53.254;10.352;2023-06-22T03:44:45;6.00;;;5.40;;
7047;SDS011;3565;53.254;10.352;2023-06-22T03:49:51;7.80;;;6.93;;
7047;SDS011;3565;53.254;10.352;2023-06-22T03:52:21;6.73;;;6.13;;
7047;SDS011;3565;53.254;10.352;2023-06-22T03:54:59;6.90;;;6.17;;
7047;SDS011;3565;53.254;10.352;2023-06-22T04:00:07;5.93;;;5.43;;
7047;SDS011;3565;53.254;10.352;2023-06-22T04:02:37;5.87;;;5.37;;
7047;SDS011;3565;53.254;10.352;2023-06-22T04:05:08;5.80;;;5.30;;
7047;SDS011;3565;53.254;10.352;2023-06-22T04:07:37;6.77;;;6.07;;
7047;SDS011;3565;53.254;10.352;2023-06-22T04:10:07;7.77;;;6.87;;
7047;SDS011;3565;53.254;10.352;2023-06-22T04:12:37;6.80;;;6.20;;
7047;SDS011;3565;53.254;10.352;2023-06-22T04:15:06;8.60;;;6.30;;
7047;SDS011;3565;53.254;10.352;2023-06-22T04:17:38;6.53;;;5.93;;
7047;SDS011;3565;53.254;10.352;2023-06-22T04:20:08;6.87;;;6.17;;
7047;SDS011;3565;53.254;10.352;2023-06-22T04:22:47;7.20;;;6.60;;
7047;SDS011;3565;53.254;10.352;2023-06-22T04:27:53;8.77;;;7.97;;
7047;SDS011;3565;53.254;10.352;2023-06-22T04:30:23;6.90;;;6.30;;
7047;SDS011;3565;53.254;10.352;2023-06-22T04:33:02;6.73;;;6.10;;
7047;SDS011;3565;53.254;10.352;2023-06-22T04:35:40;6.50;;;5.90;;
7047;SDS011;3565;53.254;10.352;2023-06-22T04:40:49;6.47;;;5.87;;
7047;SDS011;3565;53.254;10.352;2023-06-22T04:43:19;6.50;;;6.00;;
7047;SDS011;3565;53.254;10.352;2023-06-22T04:45:58;7.13;;;6.20;;
7047;SDS011;3565;53.254;10.352;2023-06-22T04:51:11;8.97;;;7.93;;
7047;SDS011;3565;53.254;10.352;2023-06-22T04:53:40;7.60;;;6.90;;
7047;SDS011;3565;53.254;10.352;2023-06-22T04:58:46;9.60;;;8.53;;
7047;SDS011;3565;53.254;10.352;2023-06-22T05:01:17;8.27;;;7.47;;
7047;SDS011;3565;53.254;10.352;2023-06-22T05:03:55;8.23;;;7.43;;
7047;SDS011;3565;53.254;10.352;2023-06-22T05:09:03;8.47;;;7.67;;
7047;SDS011;3565;53.254;10.352;2023-06-22T05:11:32;8.37;;;7.57;;
7047;SDS011;3565;53.254;10.352;2023-06-22T05:14:01;7.57;;;6.80;;
7047;SDS011;3565;53.254;10.352;2023-06-22T05:16:42;7.37;;;6.67;;
7047;SDS011;3565;53.254;10.352;2023-06-22T05:21:48;6.90;;;6.17;;
7047;SDS011;3565;53.254;10.352;2023-06-22T05:24:17;6.53;;;5.73;;
7047;SDS011;3565;53.254;10.352;2023-06-22T05:26:55;8.10;;;7.30;;
7047;SDS011;3565;53.254;10.352;2023-06-22T05:32:02;8.03;;;7.30;;
7047;SDS011;3565;53.254;10.352;2023-06-22T05:34:33;8.17;;;7.37;;
7047;SDS011;3565;53.254;10.352;2023-06-22T05:39:39;7.53;;;6.77;;
7047;SDS011;3565;53.254;10.352;2023-06-22T05:42:08;8.00;;;7.20;;
7047;SDS011;3565;53.254;10.352;2023-06-22T05:44:47;7.63;;;6.63;;
7047;SDS011;3565;53.254;10.352;2023-06-22T05:49:53;5.97;;;5.27;;
7047;SDS011;3565;53.254;10.352;2023-06-22T05:52:22;6.17;;;4.57;;
7047;SDS011;3565;53.254;10.352;2023-06-22T05:55:03;6.40;;;5.70;;
7047;SDS011;3565;53.254;10.352;2023-06-22T05:57:33;6.77;;;5.23;;
7047;SDS011;3565;53.254;10.352;2023-06-22T06:00:03;5.30;;;4.77;;
7047;SDS011;3565;53.254;10.352;2023-06-22T06:02:36;5.70;;;4.77;;
7047;SDS011;3565;53.254;10.352;2023-06-22T06:05:08;5.80;;;5.20;;
7047;SDS011;3565;53.254;10.352;2023-06-22T06:07:48;5.83;;;4.83;;
7047;SDS011;3565;53.254;10.352;2023-06-22T06:10:17;4.90;;;4.07;;
7047;SDS011;3565;53.254;10.352;2023-06-22T06:12:55;5.23;;;4.80;;
7047;SDS011;3565;53.254;10.352;2023-06-22T06:18:02;4.97;;;4.47;;
7047;SDS011;3565;53.254;10.352;2023-06-22T06:20:32;5.53;;;4.57;;
7047;SDS011;3565;53.254;10.352;2023-06-22T06:23:02;5.23;;;4.73;;
7047;SDS011;3565;53.254;10.352;2023-06-22T06:25:40;5.47;;;4.67;;
7047;SDS011;3565;53.254;10.352;2023-06-22T06:28:09;4.20;;;3.80;;
7047;SDS011;3565;53.254;10.352;2023-06-22T06:33:17;4.77;;;4.27;;
7047;SDS011;3565;53.254;10.352;2023-06-22T06:35:47;4.60;;;4.17;;
7047;SDS011;3565;53.254;10.352;2023-06-22T06:40:54;4.25;;;3.85;;
7047;SDS011;3565;53.254;10.352;2023-06-22T06:43:23;5.87;;;4.40;;
7047;SDS011;3565;53.254;10.352;2023-06-22T06:46:02;4.25;;;3.67;;
7047;SDS011;3565;53.254;10.352;2023-06-22T06:51:08;4.40;;;3.80;;
7047;SDS011;3565;53.254;10.352;2023-06-22T06:53:38;4.25;;;3.85;;
7047;SDS011;3565;53.254;10.352;2023-06-22T06:58:45;4.83;;;3.40;;
7047;SDS011;3565;53.254;10.352;2023-06-22T07:01:14;3.72;;;2.90;;
7047;SDS011;3565;53.254;10.352;2023-06-22T07:03:53;5.33;;;3.55;;
7047;SDS011;3565;53.254;10.352;2023-06-22T07:08:59;8.80;;;4.35;;
7047;SDS011;3565;53.254;10.352;2023-06-22T07:11:29;6.03;;;2.95;;
7047;SDS011;3565;53.254;10.352;2023-06-22T07:14:08;4.10;;;3.70;;
7047;SDS011;3565;53.254;10.352;2023-06-22T07:16:37;4.75;;;3.40;;
7047;SDS011;3565;53.254;10.352;2023-06-22T07:21:44;4.22;;;3.83;;
7047;SDS011;3565;53.254;10.352;2023-06-22T07:24:13;3.35;;;3.00;;
7047;SDS011;3565;53.254;10.352;2023-06-22T07:26:51;4.65;;;4.08;;
7047;SDS011;3565;53.254;10.352;2023-06-22T07:31:57;4.20;;;3.80;;
7047;SDS011;3565;53.254;10.352;2023-06-22T07:34:27;3.52;;;3.22;;
7047;SDS011;3565;53.254;10.352;2023-06-22T07:37:06;4.20;;;3.85;;
7047;SDS011;3565;53.254;10.352;2023-06-22T07:39:35;8.75;;;3.62;;
7047;SDS011;3565;53.254;10.352;2023-06-22T07:44:42;5.40;;;3.42;;
7047;SDS011;3565;53.254;10.352;2023-06-22T07:49:49;4.22;;;3.22;;
7047;SDS011;3565;53.254;10.352;2023-06-22T07:52:20;3.98;;;3.30;;
7047;SDS011;3565;53.254;10.352;2023-06-22T07:54:49;4.65;;;3.25;;
7047;SDS011;3565;53.254;10.352;2023-06-22T07:59:55;4.42;;;3.50;;
7047;SDS011;3565;53.254;10.352;2023-06-22T08:02:24;5.03;;;3.35;;
7047;SDS011;3565;53.254;10.352;2023-06-22T08:05:03;6.97;;;3.60;;
7047;SDS011;3565;53.254;10.352;2023-06-22T08:07:34;3.80;;;3.20;;
7047;SDS011;3565;53.254;10.352;2023-06-22T08:10:05;5.42;;;3.25;;
7047;SDS011;3565;53.254;10.352;2023-06-22T08:12:37;5.70;;;4.40;;
7047;SDS011;3565;53.254;10.352;2023-06-22T08:15:08;6.42;;;3.60;;
7047;SDS011;3565;53.254;10.352;2023-06-22T08:17:37;3.30;;;3.00;;
7047;SDS011;3565;53.254;10.352;2023-06-22T08:20:08;3.85;;;3.10;;
7047;SDS011;3565;53.254;10.352;2023-06-22T08:22:38;5.33;;;4.83;;
7047;SDS011;3565;53.254;10.352;2023-06-22T08:25:09;20.80;;;4.92;;
7047;SDS011;3565;53.254;10.352;2023-06-22T08:27:39;4.12;;;3.70;;
7047;SDS011;3565;53.254;10.352;2023-06-22T08:30:10;3.92;;;3.30;;
7047;SDS011;3565;53.254;10.352;2023-06-22T08:32:49;5.30;;;4.00;;
7047;SDS011;3565;53.254;10.352;2023-06-22T08:35:18;2.80;;;2.60;;
7047;SDS011;3565;53.254;10.352;2023-06-22T08:37:57;5.17;;;3.58;;
7047;SDS011;3565;53.254;10.352;2023-06-22T08:43:03;4.45;;;3.77;;
7047;SDS011;3565;53.254;10.352;2023-06-22T08:45:32;3.70;;;3.40;;
7047;SDS011;3565;53.254;10.352;2023-06-22T08:50:38;3.90;;;3.50;;
7047;SDS011;3565;53.254;10.352;2023-06-22T08:53:07;3.80;;;3.15;;
7047;SDS011;3565;53.254;10.352;2023-06-22T08:55:46;3.72;;;3.42;;
7047;SDS011;3565;53.254;10.352;2023-06-22T09:00:55;3.55;;;3.20;;
7047;SDS011;3565;53.254;10.352;2023-06-22T09:03:25;3.40;;;3.10;;
7047;SDS011;3565;53.254;10.352;2023-06-22T09:06:04;4.70;;;3.35;;
7047;SDS011;3565;53.254;10.352;2023-06-22T09:08:34;3.87;;;3.58;;
7047;SDS011;3565;53.254;10.352;2023-06-22T09:11:04;4.00;;;3.35;;
7047;SDS011;3565;53.254;10.352;2023-06-22T09:13:33;5.42;;;4.15;;
7047;SDS011;3565;53.254;10.352;2023-06-22T09:16:03;3.83;;;3.35;;
7047;SDS011;3565;53.254;10.352;2023-06-22T09:18:33;4.53;;;3.30;;
7047;SDS011;3565;53.254;10.352;2023-06-22T09:21:02;4.33;;;3.40;;
7047;SDS011;3565;53.254;10.352;2023-06-22T09:23:32;5.12;;;3.77;;
7047;SDS011;3565;53.254;10.352;2023-06-22T09:26:01;4.08;;;3.62;;
7047;SDS011;3565;53.254;10.352;2023-06-22T09:31:08;3.50;;;3.20;;
7047;SDS011;3565;53.254;10.352;2023-06-22T09:33:37;3.87;;;3.40;;
7047;SDS011;3565;53.254;10.352;2023-06-22T09:38:45;3.80;;;3.40;;
7047;SDS011;3565;53.254;10.352;2023-06-22T09:41:15;4.87;;;3.90;;
7047;SDS011;3565;53.254;10.352;2023-06-22T09:43:56;4.95;;;3.30;;
7047;SDS011;3565;53.254;10.352;2023-06-22T09:49:02;3.98;;;3.52;;
7047;SDS011;3565;53.254;10.352;2023-06-22T09:54:08;3.50;;;3.20;;
7047;SDS011;3565;53.254;10.352;2023-06-22T09:59:15;4.60;;;3.72;;
7047;SDS011;3565;53.254;10.352;2023-06-22T10:01:44;4.45;;;3.72;;
7047;SDS011;3565;53.254;10.352;2023-06-22T10:04:13;3.87;;;3.47;;
7047;SDS011;3565;53.254;10.352;2023-06-22T10:06:51;4.20;;;3.70;;
7047;SDS011;3565;53.254;10.352;2023-06-22T10:11:58;3.20;;;3.00;;
7047;SDS011;3565;53.254;10.352;2023-06-22T10:17:05;4.05;;;3.50;;
7047;SDS011;3565;53.254;10.352;2023-06-22T10:19:34;4.03;;;3.62;;
7047;SDS011;3565;53.254;10.352;2023-06-22T10:24:42;4.08;;;3.77;;
7047;SDS011;3565;53.254;10.352;2023-06-22T10:29:49;4.15;;;3.75;;
7047;SDS011;3565;53.254;10.352;2023-06-22T10:32:18;4.58;;;4.05;;
7047;SDS011;3565;53.254;10.352;2023-06-22T10:34:56;3.95;;;3.65;;
7047;SDS011;3565;53.254;10.352;2023-06-22T10:40:04;4.42;;;3.98;;
7047;SDS011;3565;53.254;10.352;2023-06-22T10:42:35;4.00;;;3.70;;
7047;SDS011;3565;53.254;10.352;2023-06-22T10:45:05;4.05;;;3.75;;
7047;SDS011;3565;53.254;10.352;2023-06-22T10:47:35;5.40;;;4.90;;
7047;SDS011;3565;53.254;10.352;2023-06-22T10:52:43;4.87;;;4.47;;
7047;SDS011;3565;53.254;10.352;2023-06-22T10:55:12;5.25;;;4.67;;
7047;SDS011;3565;53.254;10.352;2023-06-22T10:57:50;4.28;;;3.98;;
7047;SDS011;3565;53.254;10.352;2023-06-22T11:02:56;4.80;;;4.40;;
7047;SDS011;3565;53.254;10.352;2023-06-22T11:05:25;4.80;;;4.50;;
7047;SDS011;3565;53.254;10.352;2023-06-22T11:08:04;4.53;;;4.08;;
7047;SDS011;3565;53.254;10.352;2023-06-22T11:10:33;4.55;;;4.15;;
7047;SDS011;3565;53.254;10.352;2023-06-22T11:13:02;4.05;;;3.58;;
7047;SDS011;3565;53.254;10.352;2023-06-22T11:18:09;4.65;;;4.25;;
7047;SDS011;3565;53.254;10.352;2023-06-22T11:20:38;3.98;;;3.67;;
7047;SDS011;3565;53.254;10.352;2023-06-22T11:23:07;5.97;;;4.47;;
7047;SDS011;3565;53.254;10.352;2023-06-22T11:25:36;6.03;;;4.53;;
7047;SDS011;3565;53.254;10.352;2023-06-22T11:30:43;4.10;;;3.75;;
7047;SDS011;3565;53.254;10.352;2023-06-22T11:33:12;4.92;;;4.47;;
7047;SDS011;3565;53.254;10.352;2023-06-22T11:35:41;5.50;;;4.90;;
7047;SDS011;3565;53.254;10.352;2023-06-22T11:38:11;5.00;;;4.60;;
7047;SDS011;3565;53.254;10.352;2023-06-22T11:43:17;4.50;;;4.10;;
7047;SDS011;3565;53.254;10.352;2023-06-22T11:45:48;5.22;;;4.72;;
7047;SDS011;3565;53.254;10.352;2023-06-22T11:50:55;4.67;;;4.28;;
7047;SDS011;3565;53.254;10.352;2023-06-22T11:53:25;5.45;;;4.95;;
7047;SDS011;3565;53.254;10.352;2023-06-22T11:56:04;5.55;;;4.70;;
7047;SDS011;3565;53.254;10.352;2023-06-22T11:58:33;4.65;;;4.25;;
7047;SDS011;3565;53.254;10.352;2023-06-22T12:01:02;5.95;;;4.70;;
7047;SDS011;3565;53.254;10.352;2023-06-22T12:06:08;4.83;;;4.42;;
7047;SDS011;3565;53.254;10.352;2023-06-22T12:11:18;4.95;;;4.47;;
7047;SDS011;3565;53.254;10.352;2023-06-22T12:13:47;4.70;;;4.30;;
7047;SDS011;3565;53.254;10.352;2023-06-22T12:18:53;5.60;;;5.08;;
7047;SDS011;3565;53.254;10.352;2023-06-22T12:21:22;5.25;;;4.80;;
7047;SDS011;3565;53.254;10.352;2023-06-22T12:24:00;5.33;;;4.87;;
7047;SDS011;3565;53.254;10.352;2023-06-22T12:29:07;5.17;;;4.78;;
7047;SDS011;3565;53.254;10.352;2023-06-22T12:31:36;5.75;;;4.62;;
7047;SDS011;3565;53.254;10.352;2023-06-22T12:34:14;5.67;;;5.05;;
7047;SDS011;3565;53.254;10.352;2023-06-22T12:39:20;6.62;;;5.92;;
7047;SDS011;3565;53.254;10.352;2023-06-22T12:41:49;5.72;;;5.25;;
7047;SDS011;3565;53.254;10.352;2023-06-22T12:44:18;5.85;;;5.30;;
7047;SDS011;3565;53.254;10.352;2023-06-22T12:46:57;6.00;;;5.50;;
7047;SDS011;3565;53.254;10.352;2023-06-22T12:52:04;5.87;;;5.37;;
7047;SDS011;3565;53.254;10.352;2023-06-22T12:54:37;6.10;;;5.60;;
7047;SDS011;3565;53.254;10.352;2023-06-22T12:59:43;6.00;;;5.50;;
7047;SDS011;3565;53.254;10.352;2023-06-22T13:02:12;5.45;;;5.05;;
7047;SDS011;3565;53.254;10.352;2023-06-22T13:04:41;6.50;;;5.37;;
7047;SDS011;3565;53.254;10.352;2023-06-22T13:09:48;6.03;;;5.45;;
7047;SDS011;3565;53.254;10.352;2023-06-22T13:12:18;6.20;;;5.70;;
7047;SDS011;3565;53.254;10.352;2023-06-22T13:14:58;6.20;;;5.60;;
7047;SDS011;3565;53.254;10.352;2023-06-22T13:20:07;7.22;;;5.50;;
7047;SDS011;3565;53.254;10.352;2023-06-22T13:22:37;5.08;;;4.67;;
7047;SDS011;3565;53.254;10.352;2023-06-22T13:25:07;5.90;;;5.40;;
7047;SDS011;3565;53.254;10.352;2023-06-22T13:27:48;8.50;;;6.20;;
7047;SDS011;3565;53.254;10.352;2023-06-22T13:32:58;6.20;;;5.60;;
7047;SDS011;3565;53.254;10.352;2023-06-22T13:35:27;6.07;;;5.47;;
7047;SDS011;3565;53.254;10.352;2023-06-22T13:38:06;6.80;;;6.10;;
7047;SDS011;3565;53.254;10.352;2023-06-22T13:40:35;6.40;;;5.90;;
7047;SDS011;3565;53.254;10.352;2023-06-22T13:45:41;6.30;;;5.70;;
7047;SDS011;3565;53.254;10.352;2023-06-22T13:50:47;7.60;;;6.80;;
7047;SDS011;3565;53.254;10.352;2023-06-22T13:53:16;5.70;;;5.20;;
7047;SDS011;3565;53.254;10.352;2023-06-22T13:55:55;6.93;;;6.23;;
7047;SDS011;3565;53.254;10.352;2023-06-22T14:01:01;6.67;;;6.07;;
7047;SDS011;3565;53.254;10.352;2023-06-22T14:03:31;7.27;;;6.67;;
7047;SDS011;3565;53.254;10.352;2023-06-22T14:06:10;6.00;;;5.50;;
7047;SDS011;3565;53.254;10.352;2023-06-22T14:08:39;6.10;;;5.50;;
7047;SDS011;3565;53.254;10.352;2023-06-22T14:13:45;6.60;;;6.00;;
7047;SDS011;3565;53.254;10.352;2023-06-22T14:18:53;6.20;;;5.70;;
7047;SDS011;3565;53.254;10.352;2023-06-22T14:21:22;5.57;;;4.97;;
7047;SDS011;3565;53.254;10.352;2023-06-22T14:24:00;7.10;;;6.07;;
7047;SDS011;3565;53.254;10.352;2023-06-22T14:29:07;5.87;;;5.40;;
7047;SDS011;3565;53.254;10.352;2023-06-22T14:31:36;6.45;;;5.75;;
7047;SDS011;3565;53.254;10.352;2023-06-22T14:34:14;6.53;;;5.78;;
7047;SDS011;3565;53.254;10.352;2023-06-22T14:39:20;5.73;;;5.23;;
7047;SDS011;3565;53.254;10.352;2023-06-22T14:41:49;6.60;;;6.00;;
7047;SDS011;3565;53.254;10.352;2023-06-22T14:44:18;6.60;;;6.00;;
7047;SDS011;3565;53.254;10.352;2023-06-22T14:46:57;6.60;;;6.07;;
7047;SDS011;3565;53.254;10.352;2023-06-22T14:52:04;6.87;;;6.20;;
7047;SDS011;3565;53.254;10.352;2023-06-22T14:54:35;6.30;;;5.73;;
7047;SDS011;3565;53.254;10.352;2023-06-22T14:57:04;7.33;;;6.63;;
7047;SDS011;3565;53.254;10.352;2023-06-22T14:59:33;7.20;;;6.60;;
7047;SDS011;3565;53.254;10.352;2023-06-22T15:02:02;7.20;;;6.30;;
7047;SDS011;3565;53.254;10.352;2023-06-22T15:04:31;7.45;;;6.28;;
7047;SDS011;3565;53.254;10.352;2023-06-22T15:07:09;6.90;;;6.30;;
7047;SDS011;3565;53.254;10.352;2023-06-22T15:09:38;8.08;;;6.85;;
7047;SDS011;3565;53.254;10.352;2023-06-22T15:12:09;7.27;;;6.40;;
7047;SDS011;3565;53.254;10.352;2023-06-22T15:14:47;7.30;;;6.70;;
7047;SDS011;3565;53.254;10.352;2023-06-22T15:19:54;6.20;;;5.70;;
7047;SDS011;3565;53.254;10.352;2023-06-22T15:22:23;7.00;;;6.27;;
7047;SDS011;3565;53.254;10.352;2023-06-22T15:25:05;6.70;;;6.00;;
7047;SDS011;3565;53.254;10.352;2023-06-22T15:27:34;6.37;;;5.80;;
7047;SDS011;3565;53.254;10.352;2023-06-22T15:32:43;5.90;;;5.40;;
7047;SDS011;3565;53.254;10.352;2023-06-22T15:45:58;5.93;;;5.37;;
7047;SDS011;3565;53.254;10.352;2023-06-22T15:48:27;6.90;;;6.30;;
7047;SDS011;3565;53.254;10.352;2023-06-22T15:51:06;7.30;;;6.60;;
7047;SDS011;3565;53.254;10.352;2023-06-22T15:53:35;6.90;;;6.30;;
7047;SDS011;3565;53.254;10.352;2023-06-22T15:56:04;6.83;;;6.10;;
7047;SDS011;3565;53.254;10.352;2023-06-22T15:58:34;6.67;;;6.00;;
7047;SDS011;3565;53.254;10.352;2023-06-22T16:06:29;6.70;;;6.10;;
7047;SDS011;3565;53.254;10.352;2023-06-22T16:08:58;8.37;;;6.53;;
7047;SDS011;3565;53.254;10.352;2023-06-22T16:14:04;7.37;;;6.30;;
7047;SDS011;3565;53.254;10.352;2023-06-22T16:16:35;7.97;;;7.17;;
7047;SDS011;3565;53.254;10.352;2023-06-22T16:19:15;8.33;;;7.10;;
7047;SDS011;3565;53.254;10.352;2023-06-22T16:24:21;7.70;;;7.00;;
7047;SDS011;3565;53.254;10.352;2023-06-22T16:26:50;7.30;;;6.60;;
7047;SDS011;3565;53.254;10.352;2023-06-22T16:31:58;8.03;;;7.23;;
7047;SDS011;3565;53.254;10.352;2023-06-22T16:37:05;6.67;;;6.07;;
7047;SDS011;3565;53.254;10.352;2023-06-22T16:39:34;7.97;;;7.27;;
7047;SDS011;3565;53.254;10.352;2023-06-22T16:44:40;7.20;;;6.50;;
7047;SDS011;3565;53.254;10.352;2023-06-22T16:47:09;8.10;;;7.40;;
7047;SDS011;3565;53.254;10.352;2023-06-22T16:49:47;9.40;;;8.40;;
7047;SDS011;3565;53.254;10.352;2023-06-22T16:54:55;7.93;;;7.20;;
7047;SDS011;3565;53.254;10.352;2023-06-22T16:57:24;9.37;;;8.40;;
7047;SDS011;3565;53.254;10.352;2023-06-22T17:00:05;10.77;;;9.67;;
7047;SDS011;3565;53.254;10.352;2023-06-22T17:02:38;10.60;;;9.30;;
7047;SDS011;3565;53.254;10.352;2023-06-22T17:05:11;10.30;;;9.30;;
7047;SDS011;3565;53.254;10.352;2023-06-22T17:07:43;9.77;;;8.73;;
7047;SDS011;3565;53.254;10.352;2023-06-22T17:12:53;11.43;;;10.23;;
7047;SDS011;3565;53.254;10.352;2023-06-22T17:15:23;11.77;;;10.50;;
7047;SDS011;3565;53.254;10.352;2023-06-22T17:17:56;13.27;;;11.97;;
7047;SDS011;3565;53.254;10.352;2023-06-22T17:20:35;13.13;;;11.53;;
7047;SDS011;3565;53.254;10.352;2023-06-22T17:25:43;12.70;;;9.97;;
7047;SDS011;3565;53.254;10.352;2023-06-22T17:28:14;11.00;;;9.90;;
7047;SDS011;3565;53.254;10.352;2023-06-22T17:31:04;14.40;;;13.00;;
7047;SDS011;3565;53.254;10.352;2023-06-22T17:33:38;14.87;;;12.17;;
7047;SDS011;3565;53.254;10.352;2023-06-22T17:38:48;13.37;;;12.13;;
7047;SDS011;3565;53.254;10.352;2023-06-22T17:41:17;12.67;;;11.43;;
7047;SDS011;3565;53.254;10.352;2023-06-22T17:43:46;11.93;;;10.63;;
7047;SDS011;3565;53.254;10.352;2023-06-22T17:48:53;12.87;;;11.50;;
7047;SDS011;3565;53.254;10.352;2023-06-22T17:51:22;13.33;;;12.07;;
7047;SDS011;3565;53.254;10.352;2023-06-22T17:53:51;12.23;;;11.07;;
7047;SDS011;3565;53.254;10.352;2023-06-22T17:56:31;11.13;;;10.13;;
7047;SDS011;3565;53.254;10.352;2023-06-22T17:59:00;10.73;;;9.03;;
7047;SDS011;3565;53.254;10.352;2023-06-22T18:01:39;9.77;;;8.87;;
7047;SDS011;3565;53.254;10.352;2023-06-22T18:06:46;8.20;;;7.37;;
7047;SDS011;3565;53.254;10.352;2023-06-22T18:09:16;8.87;;;7.97;;
7047;SDS011;3565;53.254;10.352;2023-06-22T18:11:54;9.60;;;7.60;;
7047;SDS011;3565;53.254;10.352;2023-06-22T18:17:04;9.03;;;8.10;;
7047;SDS011;3565;53.254;10.352;2023-06-22T18:19:34;8.30;;;7.60;;
7047;SDS011;3565;53.254;10.352;2023-06-22T18:24:43;7.53;;;6.73;;
7047;SDS011;3565;53.254;10.352;2023-06-22T18:27:13;9.43;;;6.47;;
7047;SDS011;3565;53.254;10.352;2023-06-22T18:29:52;7.73;;;6.13;;
7047;SDS011;3565;53.254;10.352;2023-06-22T18:32:25;7.90;;;6.17;;
7047;SDS011;3565;53.254;10.352;2023-06-22T18:34:55;6.83;;;6.23;;
7047;SDS011;3565;53.254;10.352;2023-06-22T18:37:24;7.10;;;6.40;;
7047;SDS011;3565;53.254;10.352;2023-06-22T18:39:55;6.33;;;5.70;;
7047;SDS011;3565;53.254;10.352;2023-06-22T18:42:26;6.67;;;6.07;;
7047;SDS011;3565;53.254;10.352;2023-06-22T18:45:08;7.93;;;6.30;;
7047;SDS011;3565;53.254;10.352;2023-06-22T18:47:55;7.17;;;5.47;;
7047;SDS011;3565;53.254;10.352;2023-06-22T18:50:36;6.37;;;5.77;;
7047;SDS011;3565;53.254;10.352;2023-06-22T18:55:50;8.50;;;6.20;;
7047;SDS011;3565;53.254;10.352;2023-06-22T18:58:23;6.40;;;5.80;;
7047;SDS011;3565;53.254;10.352;2023-06-22T19:00:53;7.00;;;6.10;;
7047;SDS011;3565;53.254;10.352;2023-06-22T19:06:07;5.43;;;4.90;;
7047;SDS011;3565;53.254;10.352;2023-06-22T19:11:50;6.13;;;5.23;;
7047;SDS011;3565;53.254;10.352;2023-06-22T19:14:40;6.73;;;5.20;;
7047;SDS011;3565;53.254;10.352;2023-06-22T19:19:46;8.53;;;5.87;;
7047;SDS011;3565;53.254;10.352;2023-06-22T19:24:53;5.17;;;4.67;;
7047;SDS011;3565;53.254;10.352;2023-06-22T19:27:29;5.57;;;5.00;;
7047;SDS011;3565;53.254;10.352;2023-06-22T19:29:58;5.70;;;4.93;;
7047;SDS011;3565;53.254;10.352;2023-06-22T19:32:29;5.77;;;5.17;;
7047;SDS011;3565;53.254;10.352;2023-06-22T19:34:59;5.17;;;4.67;;
7047;SDS011;3565;53.254;10.352;2023-06-22T19:37:29;5.70;;;4.50;;
7047;SDS011;3565;53.254;10.352;2023-06-22T19:40:10;6.33;;;4.60;;
7047;SDS011;3565;53.254;10.352;2023-06-22T19:42:41;5.33;;;4.83;;
7047;SDS011;3565;53.254;10.352;2023-06-22T19:45:14;7.13;;;5.37;;
7047;SDS011;3565;53.254;10.352;2023-06-22T19:47:55;5.77;;;5.17;;
7047;SDS011;3565;53.254;10.352;2023-06-22T19:50:24;6.13;;;5.30;;
7047;SDS011;3565;53.254;10.352;2023-06-22T19:52:55;5.83;;;5.23;;
7047;SDS011;3565;53.254;10.352;2023-06-22T19:55:25;6.50;;;5.47;;
7047;SDS011;3565;53.254;10.352;2023-06-22T19:57:55;5.87;;;5.27;;
7047;SDS011;3565;53.254;10.352;2023-06-22T20:00:24;5.80;;;5.23;;